createdAt,value
2019-02-06T00:00:26.669Z,-7.12
2019-02-06T00:02:51.014Z,-7.13
2019-02-06T00:05:17.794Z,-7.12
2019-02-06T00:07:44.788Z,-7.16
2019-02-06T00:10:11.709Z,-7.20
2019-02-06T00:12:38.491Z,-7.20
2019-02-06T00:15:06.795Z,-7.19
2019-02-06T00:17:33.822Z,-7.17
2019-02-06T00:20:00.729Z,-7.19
2019-02-06T00:22:27.593Z,-7.22
2019-02-06T00:24:54.427Z,-7.23
2019-02-06T00:27:21.527Z,-7.26
2019-02-06T00:29:52.508Z,-7.28
2019-02-06T00:32:19.426Z,-7.29
2019-02-06T00:34:46.256Z,-7.29
2019-02-06T00:37:13.031Z,-7.31
2019-02-06T00:39:39.987Z,-7.33
2019-02-06T00:42:06.778Z,-7.36
2019-02-06T00:44:33.957Z,-7.34
2019-02-06T00:47:00.809Z,-7.37
2019-02-06T00:49:27.603Z,-7.34
2019-02-06T00:51:54.380Z,-7.36
2019-02-06T00:54:21.326Z,-7.30
2019-02-06T00:56:48.121Z,-7.28
2019-02-06T00:59:14.899Z,-7.28
2019-02-06T01:01:41.748Z,-7.30
2019-02-06T01:04:08.727Z,-7.30
2019-02-06T01:06:35.508Z,-7.28
2019-02-06T01:09:04.236Z,-7.32
2019-02-06T01:11:31.016Z,-7.35
2019-02-06T01:13:57.807Z,-7.43
2019-02-06T01:16:24.722Z,-7.44
2019-02-06T01:18:51.512Z,-7.49
2019-02-06T01:21:18.308Z,-7.48
2019-02-06T01:23:45.467Z,-7.50
2019-02-06T01:26:12.260Z,-7.54
2019-02-06T01:28:39.051Z,-7.57
2019-02-06T01:31:05.952Z,-7.59
2019-02-06T01:33:32.726Z,-7.66
2019-02-06T01:35:59.619Z,-7.73
2019-02-06T01:38:26.558Z,-7.73
2019-02-06T01:40:53.335Z,-7.71
2019-02-06T01:43:20.452Z,-7.66
2019-02-06T01:45:47.375Z,-7.64
2019-02-06T01:48:14.174Z,-7.65
2019-02-06T01:50:40.950Z,-7.62
2019-02-06T01:53:07.885Z,-7.63
2019-02-06T01:55:34.671Z,-7.61
2019-02-06T01:58:01.455Z,-7.62
2019-02-06T02:00:28.381Z,-7.63
2019-02-06T02:02:55.573Z,-7.62
2019-02-06T02:05:22.353Z,-7.61
2019-02-06T02:07:49.576Z,-7.63
2019-02-06T02:10:17.785Z,-7.67
2019-02-06T02:12:44.566Z,-7.67
2019-02-06T02:15:14.936Z,-7.67
2019-02-06T02:17:41.737Z,-7.69
2019-02-06T02:20:14.932Z,-7.68
2019-02-06T02:22:41.799Z,-7.71
2019-02-06T02:25:08.585Z,-7.75
2019-02-06T02:27:35.373Z,-7.76
2019-02-06T02:30:03.019Z,-7.79
2019-02-06T02:32:29.889Z,-7.77
2019-02-06T02:34:56.678Z,-7.76
2019-02-06T02:37:23.912Z,-7.75
2019-02-06T02:39:50.712Z,-7.77
2019-02-06T02:42:17.513Z,-7.77
2019-02-06T02:44:44.445Z,-7.77
2019-02-06T02:47:11.258Z,-7.84
2019-02-06T02:49:38.041Z,-7.82
2019-02-06T02:52:04.994Z,-7.81
2019-02-06T02:54:31.786Z,-7.81
2019-02-06T02:56:58.771Z,-7.83
2019-02-06T02:59:25.719Z,-7.86
2019-02-06T03:01:52.504Z,-7.84
2019-02-06T03:04:19.308Z,-7.83
2019-02-06T03:06:46.151Z,-7.84
2019-02-06T03:09:12.933Z,-7.87
2019-02-06T03:11:39.737Z,-7.88
2019-02-06T03:14:06.585Z,-7.89
2019-02-06T03:16:33.350Z,-7.88
2019-02-06T03:19:00.143Z,-7.85
2019-02-06T03:21:27.069Z,-7.86
2019-02-06T03:23:53.853Z,-7.85
2019-02-06T03:26:20.640Z,-7.84
2019-02-06T03:28:47.521Z,-7.83
2019-02-06T03:31:14.309Z,-7.86
2019-02-06T03:33:41.252Z,-7.85
2019-02-06T03:36:08.183Z,-7.90
2019-02-06T03:38:34.966Z,-7.89
2019-02-06T03:41:01.756Z,-7.89
2019-02-06T03:43:28.696Z,-7.90
2019-02-06T03:45:55.481Z,-7.89
2019-02-06T03:48:22.281Z,-7.90
2019-02-06T03:50:49.233Z,-7.93
2019-02-06T03:53:16.020Z,-7.93
2019-02-06T03:55:42.802Z,-7.94
2019-02-06T03:58:09.754Z,-7.94
2019-02-06T04:00:36.540Z,-7.92
2019-02-06T04:03:03.363Z,-7.94
2019-02-06T04:05:30.291Z,-7.97
2019-02-06T04:07:57.069Z,-7.95
2019-02-06T04:10:23.899Z,-7.97
2019-02-06T04:12:50.791Z,-8.00
2019-02-06T04:15:17.575Z,-7.98
2019-02-06T04:17:44.362Z,-7.93
2019-02-06T04:20:14.397Z,-7.93
2019-02-06T04:22:41.176Z,-7.89
2019-02-06T04:25:09.376Z,-7.90
2019-02-06T04:27:36.235Z,-7.89
2019-02-06T04:30:06.216Z,-7.94
2019-02-06T04:32:33.012Z,-7.97
2019-02-06T04:34:59.987Z,-8.02
2019-02-06T04:37:26.774Z,-8.03
2019-02-06T04:39:53.568Z,-8.06
2019-02-06T04:42:20.502Z,-8.03
2019-02-06T04:44:47.284Z,-8.07
2019-02-06T04:47:15.146Z,-8.11
2019-02-06T04:49:42.483Z,-8.16
2019-02-06T04:52:09.287Z,-8.18
2019-02-06T04:54:36.057Z,-8.18
2019-02-06T04:57:02.923Z,-8.17
2019-02-06T04:59:29.718Z,-8.18
2019-02-06T05:01:56.511Z,-8.22
2019-02-06T05:04:23.378Z,-8.26
2019-02-06T05:06:50.171Z,-8.30
2019-02-06T05:09:17.357Z,-8.31
2019-02-06T05:11:44.212Z,-8.35
2019-02-06T05:14:11.020Z,-8.33
2019-02-06T05:16:37.817Z,-8.35
2019-02-06T05:19:04.760Z,-8.37
2019-02-06T05:21:31.546Z,-8.35
2019-02-06T05:23:58.347Z,-8.34
2019-02-06T05:26:25.270Z,-8.32
2019-02-06T05:28:52.366Z,-8.30
2019-02-06T05:31:19.163Z,-8.31
2019-02-06T05:33:46.043Z,-8.30
2019-02-06T05:36:12.876Z,-8.33
2019-02-06T05:38:39.663Z,-8.34
2019-02-06T05:41:06.597Z,-8.35
2019-02-06T05:43:33.383Z,-8.38
2019-02-06T05:46:00.161Z,-8.40
2019-02-06T05:48:27.506Z,-8.37
2019-02-06T05:50:54.283Z,-8.37
2019-02-06T05:53:21.063Z,-8.38
2019-02-06T05:55:47.917Z,-8.41
2019-02-06T05:58:14.712Z,-8.42
2019-02-06T06:00:41.499Z,-8.45
2019-02-06T06:03:08.436Z,-8.43
2019-02-06T06:05:35.229Z,-8.43
2019-02-06T06:08:02.028Z,-8.44
2019-02-06T06:10:28.914Z,-8.39
2019-02-06T06:12:55.715Z,-8.38
2019-02-06T06:15:22.490Z,-8.39
2019-02-06T06:17:49.412Z,-8.40
2019-02-06T06:20:19.408Z,-8.36
2019-02-06T06:22:46.232Z,-8.40
2019-02-06T06:25:15.372Z,-8.40
2019-02-06T06:27:42.550Z,-8.40
2019-02-06T06:30:12.788Z,-8.40
2019-02-06T06:32:39.771Z,-8.36
2019-02-06T06:35:10.251Z,-8.31
2019-02-06T06:37:37.078Z,-8.25
2019-02-06T06:40:08.614Z,-8.21
2019-02-06T06:42:35.407Z,-8.18
2019-02-06T06:45:05.281Z,-8.21
2019-02-06T06:47:32.214Z,-8.26
2019-02-06T06:49:58.996Z,-8.23
2019-02-06T06:52:26.299Z,-8.28
2019-02-06T06:54:55.006Z,-8.18
2019-02-06T06:57:22.095Z,-8.18
2019-02-06T06:59:56.038Z,-8.08
2019-02-06T07:02:22.806Z,-8.10
2019-02-06T07:04:49.592Z,-8.08
2019-02-06T07:07:16.531Z,-8.09
2019-02-06T07:09:43.331Z,-8.08
2019-02-06T07:12:10.120Z,-8.09
2019-02-06T07:14:37.044Z,-8.11
2019-02-06T07:17:03.822Z,-8.12
2019-02-06T07:19:30.810Z,-8.10
2019-02-06T07:21:57.749Z,-8.09
2019-02-06T07:24:24.548Z,-8.03
2019-02-06T07:26:51.318Z,-8.01
2019-02-06T07:29:18.185Z,-8.04
2019-02-06T07:31:44.977Z,-7.98
2019-02-06T07:34:11.770Z,-7.93
2019-02-06T07:36:38.638Z,-7.84
2019-02-06T07:39:06.588Z,-7.73
2019-02-06T07:41:33.358Z,-7.68
2019-02-06T07:44:00.207Z,-7.63
2019-02-06T07:46:26.996Z,-7.53
2019-02-06T07:48:53.783Z,-7.41
2019-02-06T07:51:20.626Z,-7.33
2019-02-06T07:53:47.417Z,-7.22
2019-02-06T07:56:14.215Z,-7.13
2019-02-06T07:58:41.379Z,-7.03
2019-02-06T08:01:08.129Z,-6.90
2019-02-06T08:03:34.927Z,-6.86
2019-02-06T08:06:01.865Z,-6.82
2019-02-06T08:08:35.565Z,-6.79
2019-02-06T08:10:57.230Z,-6.68
2019-02-06T08:13:24.086Z,-6.64
2019-02-06T08:15:50.872Z,-6.57
2019-02-06T08:18:18.052Z,-6.55
2019-02-06T08:20:44.902Z,-6.47
2019-02-06T08:23:11.690Z,-6.35
2019-02-06T08:25:38.480Z,-6.25
2019-02-06T08:28:05.412Z,-6.13
2019-02-06T08:30:39.513Z,-5.99
2019-02-06T08:33:06.311Z,-5.92
2019-02-06T08:35:33.468Z,-5.82
2019-02-06T08:38:00.249Z,-5.71
2019-02-06T08:40:29.977Z,-5.57
2019-02-06T08:42:56.829Z,-5.46
2019-02-06T08:45:23.627Z,-5.35
2019-02-06T08:47:50.443Z,-5.24
2019-02-06T08:50:21.979Z,-5.13
2019-02-06T08:52:49.062Z,-5.11
2019-02-06T08:55:27.872Z,-5.02
2019-02-06T08:57:54.646Z,-4.88
2019-02-06T09:00:27.870Z,-4.77
2019-02-06T09:02:54.715Z,-4.69
2019-02-06T09:05:21.494Z,-4.62
2019-02-06T09:07:48.281Z,-4.59
2019-02-06T09:10:21.416Z,-4.52
2019-02-06T09:12:48.211Z,-4.48
2019-02-06T09:15:15.002Z,-4.41
2019-02-06T09:17:42.033Z,-4.29
2019-02-06T09:20:13.511Z,-4.26
2019-02-06T09:22:40.602Z,-4.15
2019-02-06T09:25:12.541Z,-4.03
2019-02-06T09:27:39.342Z,-3.98
2019-02-06T09:30:11.431Z,-3.94
2019-02-06T09:32:38.348Z,-3.83
2019-02-06T09:35:05.941Z,-3.74
2019-02-06T09:37:32.728Z,-3.67
2019-02-06T09:40:06.691Z,-3.56
2019-02-06T09:42:33.473Z,-3.47
2019-02-06T09:45:00.268Z,-3.40
2019-02-06T09:47:27.100Z,-3.23
2019-02-06T09:49:53.888Z,-3.11
2019-02-06T09:52:20.675Z,-3.01
2019-02-06T09:54:47.631Z,-2.91
2019-02-06T09:57:14.813Z,-2.83
2019-02-06T09:59:41.602Z,-2.73
2019-02-06T10:02:09.580Z,-2.65
2019-02-06T10:04:36.453Z,-2.58
2019-02-06T10:07:03.243Z,-2.45
2019-02-06T10:09:30.073Z,-2.41
2019-02-06T10:11:56.860Z,-2.36
2019-02-06T10:14:23.638Z,-2.21
2019-02-06T10:16:50.978Z,-2.14
2019-02-06T10:19:17.767Z,-2.12
2019-02-06T10:21:44.565Z,-2.09
2019-02-06T10:24:11.397Z,-2.04
2019-02-06T10:26:38.189Z,-2.01
2019-02-06T10:29:05.073Z,-1.96
2019-02-06T10:31:32.915Z,-1.86
2019-02-06T10:33:59.889Z,-1.77
2019-02-06T10:36:26.860Z,-1.71
2019-02-06T10:38:53.709Z,-1.60
2019-02-06T10:41:20.534Z,-1.57
2019-02-06T10:43:47.348Z,-1.50
2019-02-06T10:46:14.271Z,-1.43
2019-02-06T10:48:43.736Z,-1.37
2019-02-06T10:51:09.741Z,-1.32
2019-02-06T10:53:37.300Z,-1.22
2019-02-06T10:56:04.086Z,-1.19
2019-02-06T10:58:30.874Z,-1.17
2019-02-06T11:00:57.733Z,-1.13
2019-02-06T11:03:24.506Z,-1.07
2019-02-06T11:05:51.285Z,-0.95
2019-02-06T11:08:18.155Z,-0.84
2019-02-06T11:10:45.020Z,-0.77
2019-02-06T11:13:12.202Z,-0.68
2019-02-06T11:15:39.126Z,-0.59
2019-02-06T11:18:05.914Z,-0.49
2019-02-06T11:20:36.621Z,-0.42
2019-02-06T11:23:04.159Z,-0.27
2019-02-06T11:25:30.949Z,-0.20
2019-02-06T11:27:57.730Z,-0.11
2019-02-06T11:30:33.789Z,-0.02
2019-02-06T11:33:00.586Z,0.05
2019-02-06T11:35:27.363Z,0.15
2019-02-06T11:37:54.230Z,0.23
2019-02-06T11:40:24.283Z,0.32
2019-02-06T11:42:51.811Z,0.39
2019-02-06T11:45:21.877Z,0.44
2019-02-06T11:47:48.658Z,0.47
2019-02-06T11:50:18.945Z,0.58
2019-02-06T11:52:45.798Z,0.66
2019-02-06T11:55:19.599Z,0.76
2019-02-06T11:57:46.382Z,0.87
2019-02-06T12:00:19.242Z,0.96
2019-02-06T12:02:46.025Z,1.08
2019-02-06T12:05:12.825Z,1.19
2019-02-06T12:07:39.663Z,1.58
2019-02-06T12:10:17.288Z,2.22
2019-02-06T12:12:44.139Z,3.02
2019-02-06T12:15:17.468Z,3.84
2019-02-06T12:17:44.728Z,4.60
2019-02-06T12:20:23.261Z,5.19
2019-02-06T12:22:50.045Z,5.62
2019-02-06T12:25:17.561Z,5.98
2019-02-06T12:27:47.424Z,6.31
2019-02-06T12:30:21.770Z,6.64
2019-02-06T12:32:52.262Z,7.00
2019-02-06T12:35:17.372Z,7.20
2019-02-06T12:37:44.178Z,7.39
2019-02-06T12:40:21.089Z,7.45
2019-02-06T12:42:41.413Z,7.46
2019-02-06T12:45:11.034Z,7.46
2019-02-06T12:47:38.014Z,7.66
2019-02-06T12:50:08.167Z,7.86
2019-02-06T12:52:35.135Z,8.00
2019-02-06T12:55:02.624Z,8.13
2019-02-06T12:57:37.256Z,8.29
2019-02-06T12:59:58.685Z,8.41
2019-02-06T13:02:25.657Z,8.56
2019-02-06T13:04:52.782Z,8.83
2019-02-06T13:07:19.757Z,8.92
2019-02-06T13:09:47.202Z,9.10
2019-02-06T13:12:14.370Z,9.25
2019-02-06T13:14:41.341Z,9.13
2019-02-06T13:17:08.308Z,8.53
2019-02-06T13:19:35.343Z,7.80
2019-02-06T13:22:02.320Z,7.08
2019-02-06T13:24:29.300Z,6.50
2019-02-06T13:26:56.323Z,5.91
2019-02-06T13:29:23.394Z,5.42
2019-02-06T13:31:50.372Z,5.04
2019-02-06T13:34:17.432Z,4.67
2019-02-06T13:36:44.396Z,4.42
2019-02-06T13:39:11.366Z,4.19
2019-02-06T13:41:38.416Z,4.05
2019-02-06T13:44:05.395Z,3.92
2019-02-06T13:46:32.408Z,3.79
2019-02-06T13:48:59.515Z,3.63
2019-02-06T13:51:26.494Z,3.38
2019-02-06T13:53:53.460Z,3.22
2019-02-06T13:56:20.352Z,3.13
2019-02-06T13:58:47.135Z,3.06
2019-02-06T14:01:25.092Z,2.90
2019-02-06T14:03:42.649Z,2.75
2019-02-06T14:06:11.500Z,2.67
2019-02-06T14:08:38.314Z,2.62
2019-02-06T14:11:05.343Z,2.54
2019-02-06T14:13:32.115Z,2.45
2019-02-06T14:15:58.900Z,2.47
2019-02-06T14:18:25.840Z,2.47
2019-02-06T14:20:52.626Z,2.48
2019-02-06T14:23:43.217Z,2.47
2019-02-06T14:26:18.089Z,2.35
2019-02-06T14:29:08.342Z,2.27
2019-02-06T14:31:55.319Z,2.22
2019-02-06T14:34:33.972Z,2.20
2019-02-06T14:37:39.691Z,2.13
2019-02-06T14:40:30.317Z,2.06
2019-02-06T14:43:25.417Z,1.99
2019-02-06T14:46:28.179Z,1.91
2019-02-06T14:49:17.770Z,1.87
2019-02-06T14:52:29.016Z,1.82
2019-02-06T14:55:18.611Z,1.80
2019-02-06T14:58:28.204Z,1.76
2019-02-06T15:01:15.317Z,1.74
2019-02-06T15:03:47.669Z,1.71
2019-02-06T15:06:50.336Z,1.67
2019-02-06T15:09:37.025Z,1.62
2019-02-06T15:12:28.930Z,1.51
2019-02-06T15:15:18.971Z,1.45
2019-02-06T15:18:14.430Z,1.39
2019-02-06T15:21:01.423Z,1.31
2019-02-06T15:23:53.266Z,1.21
2019-02-06T15:26:53.280Z,1.10
2019-02-06T15:29:40.612Z,1.06
2019-02-06T15:32:43.277Z,0.99
2019-02-06T15:35:21.517Z,0.91
2019-02-06T15:38:15.390Z,0.80
2019-02-06T15:41:02.526Z,0.75
2019-02-06T15:43:53.299Z,0.68
2019-02-06T15:47:02.088Z,0.60
2019-02-06T15:49:40.225Z,0.45
2019-02-06T15:52:18.168Z,0.33
2019-02-06T15:55:17.284Z,0.31
2019-02-06T15:58:11.511Z,0.19
2019-02-06T16:00:46.912Z,-0.05
2019-02-06T16:03:51.002Z,-0.04
2019-02-06T16:06:45.346Z,-0.08
2019-02-06T16:09:29.591Z,-0.21
2019-02-06T16:12:25.786Z,-0.26
2019-02-06T16:15:34.146Z,-0.33
2019-02-06T16:18:12.507Z,-0.39
2019-02-06T16:21:17.318Z,-0.46
2019-02-06T16:24:12.601Z,-0.46
2019-02-06T16:26:53.406Z,-0.57
2019-02-06T16:29:40.276Z,-0.65
2019-02-06T16:32:30.369Z,-0.68
2019-02-06T16:35:27.135Z,-0.71
2019-02-06T16:38:17.440Z,-0.68
2019-02-06T16:41:04.680Z,-0.72
2019-02-06T16:44:01.040Z,-0.74
2019-02-06T16:47:06.233Z,-0.75
2019-02-06T16:49:50.408Z,-0.78
2019-02-06T16:52:31.504Z,-0.83
2019-02-06T16:55:43.120Z,-0.85
2019-02-06T16:58:30.630Z,-0.87
2019-02-06T17:01:37.525Z,-0.90
2019-02-06T17:04:28.209Z,-0.96
2019-02-06T17:07:27.476Z,-1.07
2019-02-06T17:13:07.516Z,-1.17
2019-02-06T17:15:42.717Z,-1.23
2019-02-06T17:18:49.432Z,-1.24
2019-02-06T17:21:27.901Z,-1.25
2019-02-06T17:24:41.337Z,-1.36
2019-02-06T17:27:22.719Z,-1.37
2019-02-06T17:30:09.876Z,-1.49
2019-02-06T17:33:01.830Z,-1.51
2019-02-06T17:35:55.252Z,-1.53
2019-02-06T17:38:45.776Z,-1.56
2019-02-06T17:41:36.237Z,-1.58
2019-02-06T17:44:17.479Z,-1.64
2019-02-06T17:47:08.760Z,-1.64
2019-02-06T17:49:53.914Z,-1.67
2019-02-06T17:52:46.923Z,-1.71
2019-02-06T17:55:21.455Z,-1.74
2019-02-06T17:57:50.755Z,-1.79
2019-02-06T18:00:22.974Z,-1.81
2019-02-06T18:02:49.762Z,-1.86
2019-02-06T18:05:16.564Z,-1.91
2019-02-06T18:07:43.491Z,-1.93
2019-02-06T18:10:18.651Z,-1.94
2019-02-06T18:12:45.678Z,-1.95
2019-02-06T18:15:12.455Z,-1.99
2019-02-06T18:17:39.255Z,-2.00
2019-02-06T18:20:11.483Z,-2.03
2019-02-06T18:22:38.277Z,-2.02
2019-02-06T18:25:08.675Z,-2.04
2019-02-06T18:27:35.900Z,-2.11
2019-02-06T18:30:10.740Z,-2.16
2019-02-06T18:32:37.661Z,-2.14
2019-02-06T18:35:06.252Z,-2.17
2019-02-06T18:37:33.052Z,-2.19
2019-02-06T18:39:59.989Z,-2.26
2019-02-06T18:42:36.698Z,-2.27
2019-02-06T18:44:55.418Z,-2.28
2019-02-06T18:47:22.856Z,-2.31
2019-02-06T18:49:49.718Z,-2.37
2019-02-06T18:52:20.500Z,-2.39
2019-02-06T18:54:45.244Z,-2.42
2019-02-06T18:57:12.060Z,-2.42
2019-02-06T18:59:38.916Z,-2.42
2019-02-06T19:02:05.966Z,-2.46
2019-02-06T19:04:32.851Z,-2.48
2019-02-06T19:06:59.966Z,-2.53
2019-02-06T19:09:28.915Z,-2.54
2019-02-06T19:11:55.640Z,-2.55
2019-02-06T19:14:22.603Z,-2.60
2019-02-06T19:16:49.675Z,-2.64
2019-02-06T19:19:25.085Z,-2.67
2019-02-06T19:21:45.611Z,-2.68
2019-02-06T19:24:12.662Z,-2.70
2019-02-06T19:26:39.772Z,-2.74
2019-02-06T19:29:06.872Z,-2.81
2019-02-06T19:31:34.103Z,-2.82
2019-02-06T19:34:01.397Z,-2.84
2019-02-06T19:36:28.491Z,-2.85
2019-02-06T19:38:55.747Z,-2.88
2019-02-06T19:41:22.965Z,-2.91
2019-02-06T19:43:50.185Z,-2.93
2019-02-06T19:46:17.433Z,-2.96
2019-02-06T19:48:44.645Z,-3.00
2019-02-06T19:51:11.944Z,-3.02
2019-02-06T19:53:42.616Z,-3.07
2019-02-06T19:56:10.217Z,-3.10
2019-02-06T19:58:37.412Z,-3.11
2019-02-06T20:01:04.791Z,-3.14
2019-02-06T20:03:32.000Z,-3.18
2019-02-06T20:05:59.210Z,-3.18
2019-02-06T20:08:28.151Z,-3.17
2019-02-06T20:10:55.844Z,-3.17
2019-02-06T20:13:23.048Z,-3.19
2019-02-06T20:15:50.592Z,-3.25
2019-02-06T20:18:17.812Z,-3.31
2019-02-06T20:20:45.030Z,-3.37
2019-02-06T20:23:12.385Z,-3.38
2019-02-06T20:25:39.574Z,-3.43
2019-02-06T20:28:09.773Z,-3.45
2019-02-06T20:30:36.818Z,-3.45
2019-02-06T20:33:03.914Z,-3.43
2019-02-06T20:35:30.919Z,-3.44
2019-02-06T20:37:58.153Z,-3.46
2019-02-06T20:40:36.202Z,-3.48
2019-02-06T20:43:03.846Z,-3.52
2019-02-06T20:45:30.849Z,-3.57
2019-02-06T20:47:57.727Z,-3.62
2019-02-06T20:50:33.195Z,-3.61
2019-02-06T20:53:00.509Z,-3.64
2019-02-06T20:55:27.379Z,-3.69
2019-02-06T20:57:54.484Z,-3.72
2019-02-06T21:00:29.689Z,-3.76
2019-02-06T21:02:56.698Z,-3.80
2019-02-06T21:05:23.516Z,-3.85
2019-02-06T21:07:50.341Z,-3.88
2019-02-06T21:10:27.018Z,-3.91
2019-02-06T21:12:53.815Z,-3.91
2019-02-06T21:15:20.601Z,-3.99
2019-02-06T21:17:47.453Z,-4.00
2019-02-06T21:20:17.851Z,-4.00
2019-02-06T21:22:44.648Z,-4.04
2019-02-06T21:25:21.126Z,-4.03
2019-02-06T21:27:49.215Z,-4.05
2019-02-06T21:30:32.883Z,-4.09
2019-02-06T21:32:59.674Z,-4.10
2019-02-06T21:35:26.558Z,-4.15
2019-02-06T21:37:53.979Z,-4.15
2019-02-06T21:40:24.386Z,-4.19
2019-02-06T21:42:51.198Z,-4.22
2019-02-06T21:45:18.055Z,-4.19
2019-02-06T21:47:44.848Z,-4.19
2019-02-06T21:50:19.280Z,-4.22
2019-02-06T21:52:46.323Z,-4.24
2019-02-06T21:55:17.205Z,-4.28
2019-02-06T21:57:43.988Z,-4.34
2019-02-06T22:00:21.213Z,-4.36
2019-02-06T22:02:48.008Z,-4.37
2019-02-06T22:05:14.797Z,-4.39
2019-02-06T22:07:41.752Z,-4.43
2019-02-06T22:10:17.917Z,-4.44
2019-02-06T22:12:44.886Z,-4.49
2019-02-06T22:15:18.288Z,-4.51
2019-02-06T22:17:45.074Z,-4.55
2019-02-06T22:20:11.997Z,-4.58
2019-02-06T22:22:38.889Z,-4.60
2019-02-06T22:25:06.993Z,-4.66
2019-02-06T22:27:34.941Z,-4.70
2019-02-06T22:30:01.918Z,-4.72
2019-02-06T22:32:28.709Z,-4.75
2019-02-06T22:34:55.642Z,-4.75
2019-02-06T22:37:22.410Z,-4.76
2019-02-06T22:39:49.201Z,-4.82
2019-02-06T22:42:16.414Z,-4.83
2019-02-06T22:44:43.200Z,-4.82
2019-02-06T22:47:10.000Z,-4.78
2019-02-06T22:49:36.934Z,-4.77
2019-02-06T22:52:03.722Z,-4.82
2019-02-06T22:54:30.557Z,-4.88
2019-02-06T22:56:57.481Z,-4.89
2019-02-06T22:59:24.270Z,-4.89
2019-02-06T23:01:51.050Z,-4.93
2019-02-06T23:04:17.983Z,-4.96
2019-02-06T23:06:44.786Z,-4.94
2019-02-06T23:09:11.556Z,-4.94
2019-02-06T23:11:38.484Z,-4.97
2019-02-06T23:14:05.273Z,-5.00
2019-02-06T23:16:32.060Z,-5.02
2019-02-06T23:18:59.407Z,-5.04
2019-02-06T23:21:26.192Z,-5.07
2019-02-06T23:23:52.999Z,-5.09
2019-02-06T23:26:19.940Z,-5.09
2019-02-06T23:28:46.731Z,-5.09
2019-02-06T23:31:13.526Z,-5.10
2019-02-06T23:33:40.382Z,-5.15
2019-02-06T23:36:07.271Z,-5.18
2019-02-06T23:38:34.070Z,-5.20
2019-02-06T23:41:00.942Z,-5.23
2019-02-06T23:43:27.723Z,-5.25
2019-02-06T23:45:54.522Z,-5.28
2019-02-06T23:48:21.668Z,-5.32
2019-02-06T23:50:48.459Z,-5.35
2019-02-06T23:53:15.232Z,-5.37
2019-02-06T23:55:42.567Z,-5.37
2019-02-06T23:58:09.344Z,-5.39
